createdAt,value
2022-10-21T00:01:32.911Z,8.00
2022-10-21T00:06:36.706Z,8.77
2022-10-21T00:11:40.253Z,8.48
2022-10-21T00:16:45.608Z,8.32
2022-10-21T00:21:59.589Z,8.25
2022-10-21T00:27:04.527Z,9.32
2022-10-21T00:32:09.237Z,9.95
2022-10-21T00:37:15.464Z,9.07
2022-10-21T00:42:21.338Z,9.73
2022-10-21T00:47:24.431Z,11.48
2022-10-21T00:52:29.803Z,9.80
2022-10-21T00:57:35.532Z,11.27
2022-10-21T01:02:39.176Z,11.05
2022-10-21T01:07:43.091Z,12.60
2022-10-21T01:12:56.820Z,11.70
2022-10-21T01:18:23.545Z,12.02
2022-10-21T01:23:51.676Z,11.25
2022-10-21T01:29:09.693Z,10.95
2022-10-21T01:34:14.666Z,10.30
2022-10-21T01:39:28.211Z,10.98
2022-10-21T01:44:48.374Z,9.80
2022-10-21T01:50:04.960Z,9.95
2022-10-21T01:55:12.727Z,11.48
2022-10-21T02:00:16.402Z,11.13
2022-10-21T02:05:27.771Z,11.82
2022-10-21T02:10:37.336Z,11.67
2022-10-21T02:15:42.533Z,10.20
2022-10-21T02:20:56.220Z,12.00
2022-10-21T02:26:00.095Z,9.75
2022-10-21T02:31:06.249Z,9.98
2022-10-21T02:36:47.795Z,10.13
2022-10-21T02:41:54.033Z,10.48
2022-10-21T02:47:29.974Z,10.60
2022-10-21T02:52:33.515Z,10.48
2022-10-21T02:57:37.248Z,10.25
2022-10-21T03:02:41.235Z,9.93
2022-10-21T03:07:46.796Z,10.63
2022-10-21T03:12:50.720Z,9.38
2022-10-21T03:17:54.056Z,10.13
2022-10-21T03:22:57.398Z,10.18
2022-10-21T03:28:02.106Z,9.43
2022-10-21T03:33:06.146Z,9.77
2022-10-21T03:38:10.859Z,10.82
2022-10-21T03:43:14.242Z,9.63
2022-10-21T03:48:19.247Z,10.07
2022-10-21T03:53:42.183Z,9.40
2022-10-21T03:58:47.029Z,10.35
2022-10-21T04:03:50.760Z,9.98
2022-10-21T04:08:58.734Z,9.95
2022-10-21T04:14:02.335Z,10.38
2022-10-21T04:19:05.774Z,9.32
2022-10-21T04:24:11.269Z,10.20
2022-10-21T04:29:14.913Z,10.48
2022-10-21T04:34:18.784Z,9.48
2022-10-21T04:39:22.448Z,9.70
2022-10-21T04:44:25.872Z,10.38
2022-10-21T04:49:29.731Z,9.13
2022-10-21T04:54:34.246Z,10.23
2022-10-21T04:59:37.772Z,9.35
2022-10-21T05:04:41.700Z,9.57
2022-10-21T05:09:45.567Z,9.45
2022-10-21T05:14:48.995Z,9.77
2022-10-21T05:19:52.607Z,10.60
2022-10-21T05:24:55.964Z,9.60
2022-10-21T05:29:59.460Z,9.77
2022-10-21T05:35:03.003Z,9.27
2022-10-21T05:40:08.170Z,8.90
2022-10-21T05:45:13.295Z,8.80
2022-10-21T05:50:17.494Z,9.05
2022-10-21T05:55:21.610Z,8.65
2022-10-21T06:00:25.340Z,8.95
2022-10-21T06:05:33.860Z,8.40
2022-10-21T06:10:37.341Z,8.30
2022-10-21T06:15:40.929Z,7.45
2022-10-21T06:20:44.446Z,9.10
2022-10-21T06:26:01.189Z,7.93
2022-10-21T06:31:05.536Z,9.20
2022-10-21T06:36:09.384Z,6.82
2022-10-21T06:41:14.525Z,7.65
2022-10-21T06:46:18.585Z,6.97
2022-10-21T06:51:23.454Z,8.10
2022-10-21T06:56:27.978Z,8.25
2022-10-21T07:01:55.335Z,7.05
2022-10-21T07:06:55.658Z,7.70
2022-10-21T07:12:01.035Z,6.65
2022-10-21T07:17:05.372Z,7.53
2022-10-21T07:22:08.671Z,7.13
2022-10-21T07:27:12.196Z,6.40
2022-10-21T07:32:15.706Z,6.70
2022-10-21T07:37:19.073Z,7.57
2022-10-21T07:42:22.616Z,5.93
2022-10-21T07:47:26.148Z,6.90
2022-10-21T07:52:30.314Z,6.65
2022-10-21T07:57:35.246Z,7.13
2022-10-21T08:02:38.738Z,6.35
2022-10-21T08:07:42.739Z,5.70
2022-10-21T08:12:46.011Z,5.75
2022-10-21T08:17:49.235Z,6.70
2022-10-21T08:22:52.749Z,5.97
2022-10-21T08:27:56.947Z,8.10
2022-10-21T08:33:00.882Z,6.43
2022-10-21T08:38:04.451Z,7.45
2022-10-21T08:43:11.084Z,6.25
2022-10-21T08:48:20.162Z,6.05
2022-10-21T08:53:33.430Z,6.45
2022-10-21T08:58:37.210Z,6.10
2022-10-21T09:03:52.392Z,6.53
2022-10-21T09:09:18.200Z,5.90
2022-10-21T09:14:40.215Z,6.28
2022-10-21T09:20:01.826Z,5.97
2022-10-21T09:30:47.900Z,5.70
2022-10-21T09:36:02.979Z,5.80
2022-10-21T09:41:13.981Z,6.75
2022-10-21T09:46:21.296Z,6.60
2022-10-21T09:51:32.056Z,5.93
2022-10-21T09:56:50.365Z,5.65
2022-10-21T10:01:55.767Z,5.47
2022-10-21T10:07:20.935Z,5.20
2022-10-21T10:12:27.421Z,5.95
2022-10-21T10:17:33.393Z,5.22
2022-10-21T10:22:45.089Z,4.95
2022-10-21T10:27:51.749Z,6.20
2022-10-21T10:32:57.080Z,6.93
2022-10-21T10:38:02.102Z,6.75
2022-10-21T10:43:22.352Z,6.10
2022-10-21T10:48:50.948Z,6.05
2022-10-21T10:54:25.362Z,7.40
2022-10-21T10:59:38.257Z,7.85
2022-10-21T11:04:46.762Z,7.18
2022-10-21T11:09:52.942Z,7.60
2022-10-21T11:14:58.805Z,7.13
2022-10-21T11:20:16.971Z,7.50
2022-10-21T11:25:28.964Z,7.68
2022-10-21T11:31:07.182Z,6.72
2022-10-21T11:36:16.273Z,7.55
2022-10-21T11:41:44.229Z,7.05
2022-10-21T11:47:06.556Z,6.35
2022-10-21T11:52:25.350Z,6.68
2022-10-21T11:57:39.520Z,6.10
2022-10-21T12:03:11.872Z,6.70
2022-10-21T12:08:43.842Z,7.65
2022-10-21T12:13:53.366Z,6.97
2022-10-21T12:19:04.590Z,7.28
2022-10-21T12:24:40.774Z,7.20
2022-10-21T12:30:26.513Z,7.28
2022-10-21T12:35:52.657Z,6.80
2022-10-21T12:41:20.794Z,6.07
2022-10-21T12:46:46.283Z,7.47
2022-10-21T12:52:14.714Z,7.63
2022-10-21T12:57:37.673Z,7.38
2022-10-21T13:03:10.370Z,7.30
2022-10-21T13:08:19.653Z,7.45
2022-10-21T13:13:44.803Z,7.57
2022-10-21T13:18:52.330Z,6.47
2022-10-21T13:23:58.339Z,6.70
2022-10-21T13:29:16.604Z,7.00
2022-10-21T13:34:28.542Z,7.32
2022-10-21T13:39:34.360Z,6.82
2022-10-21T13:44:40.735Z,6.55
2022-10-21T13:49:51.716Z,7.60
2022-10-21T13:55:00.538Z,7.45
2022-10-21T14:00:10.080Z,7.28
2022-10-21T14:05:54.096Z,7.32
2022-10-21T14:11:01.096Z,8.43
2022-10-21T14:16:06.952Z,7.28
2022-10-21T14:21:19.750Z,7.32
2022-10-21T14:26:23.347Z,8.77
2022-10-21T14:31:27.739Z,9.10
2022-10-21T14:36:31.857Z,7.38
2022-10-21T14:41:37.253Z,8.10
2022-10-21T14:46:46.467Z,7.13
2022-10-21T14:51:50.885Z,8.27
2022-10-21T14:56:56.207Z,8.02
2022-10-21T15:02:01.281Z,8.18
2022-10-21T15:07:04.855Z,7.85
2022-10-21T15:12:20.172Z,8.82
2022-10-21T15:17:23.678Z,9.00
2022-10-21T15:22:33.874Z,7.80
2022-10-21T15:27:43.000Z,7.68
2022-10-21T15:32:50.107Z,9.73
2022-10-21T15:37:54.687Z,8.65
2022-10-21T15:42:58.068Z,8.05
2022-10-21T15:48:01.259Z,8.80
2022-10-21T15:53:04.795Z,8.40
2022-10-21T15:58:10.153Z,8.40
2022-10-21T16:03:13.968Z,7.93
2022-10-21T16:08:17.309Z,9.52
2022-10-21T16:13:20.552Z,8.05
2022-10-21T16:18:23.923Z,8.95
2022-10-21T16:23:27.897Z,8.80
2022-10-21T16:28:31.512Z,7.57
2022-10-21T16:33:36.160Z,8.43
2022-10-21T16:38:39.416Z,8.20
2022-10-21T16:43:43.958Z,8.50
2022-10-21T16:48:47.491Z,9.13
2022-10-21T16:53:50.943Z,8.98
2022-10-21T16:58:54.662Z,7.55
2022-10-21T17:03:58.177Z,8.82
2022-10-21T17:09:01.655Z,8.45
2022-10-21T17:14:07.782Z,8.07
2022-10-21T17:19:12.775Z,8.68
2022-10-21T17:24:17.699Z,8.38
2022-10-21T17:29:20.958Z,8.07
2022-10-21T17:34:30.877Z,8.55
2022-10-21T17:39:34.474Z,8.30
2022-10-21T17:44:37.907Z,8.55
2022-10-21T17:49:41.792Z,8.80
2022-10-21T17:54:45.132Z,8.45
2022-10-21T17:59:48.481Z,8.57
2022-10-21T18:04:55.680Z,8.60
2022-10-21T18:09:59.332Z,8.50
2022-10-21T18:15:03.442Z,8.38
2022-10-21T18:20:07.663Z,8.45
2022-10-21T18:25:12.254Z,8.45
2022-10-21T18:30:16.083Z,8.40
2022-10-21T18:35:19.907Z,8.57
2022-10-21T18:40:23.343Z,8.40
2022-10-21T18:45:29.795Z,7.95
2022-10-21T18:50:36.050Z,9.50
2022-10-21T18:55:42.087Z,9.88
2022-10-21T19:00:45.669Z,9.20
2022-10-21T19:05:49.817Z,9.48
2022-10-21T19:10:53.240Z,8.57
2022-10-21T19:15:56.427Z,8.43
2022-10-21T19:20:59.834Z,8.38
2022-10-21T19:26:06.396Z,10.60
2022-10-21T19:31:10.957Z,10.60
2022-10-21T19:36:14.451Z,9.35
2022-10-21T19:41:21.154Z,8.50
2022-10-21T19:46:26.567Z,9.95
2022-10-21T19:51:30.355Z,8.77
2022-10-21T19:56:34.540Z,9.57
2022-10-21T20:01:38.216Z,9.10
2022-10-21T20:06:41.790Z,8.85
2022-10-21T20:11:45.053Z,8.45
2022-10-21T20:16:49.640Z,9.00
2022-10-21T20:21:52.811Z,9.63
2022-10-21T20:26:59.682Z,10.02
2022-10-21T20:32:05.655Z,9.20
2022-10-21T20:37:09.210Z,9.38
2022-10-21T20:42:12.618Z,9.80
2022-10-21T20:47:16.223Z,10.35
2022-10-21T20:52:19.743Z,9.80
2022-10-21T20:57:22.999Z,10.05
2022-10-21T21:02:26.349Z,10.77
2022-10-21T21:07:31.259Z,10.43
2022-10-21T21:12:41.864Z,10.88
2022-10-21T21:17:48.732Z,9.73
2022-10-21T21:22:52.163Z,10.38
2022-10-21T21:27:55.397Z,10.05
2022-10-21T21:32:58.864Z,9.80
2022-10-21T21:38:02.572Z,12.13
2022-10-21T21:43:05.925Z,10.05
2022-10-21T21:48:09.143Z,11.30
2022-10-21T21:53:15.968Z,9.85
2022-10-21T21:58:19.680Z,11.32
2022-10-21T22:03:23.549Z,10.48
2022-10-21T22:08:27.104Z,10.95
2022-10-21T22:13:30.463Z,10.40
2022-10-21T22:18:34.076Z,10.63
2022-10-21T22:23:40.892Z,10.95
2022-10-21T22:28:45.186Z,10.70
2022-10-21T22:33:48.803Z,10.13
2022-10-21T22:38:52.292Z,12.02
2022-10-21T22:43:56.526Z,10.95
2022-10-21T22:48:59.833Z,10.75
2022-10-21T22:54:03.654Z,11.13
2022-10-21T22:59:07.130Z,11.10
2022-10-21T23:04:11.183Z,11.63
2022-10-21T23:09:14.626Z,10.70
2022-10-21T23:14:17.986Z,10.27
2022-10-21T23:19:21.301Z,12.70
2022-10-21T23:24:24.568Z,11.27
2022-10-21T23:29:28.171Z,10.40
2022-10-21T23:34:32.221Z,10.27
2022-10-21T23:39:35.752Z,11.57
2022-10-21T23:44:38.994Z,10.55
2022-10-21T23:49:42.404Z,11.80
2022-10-21T23:54:45.941Z,9.27
2022-10-21T23:59:49.622Z,9.70
